Carthage, New York
Current Conditions -  °F | °C
As of 1:13 PM on Friday 19 Dec 2014 (Local Time) from KGTB Reporting Station
Light Snow Light Snow  
Wind Chill: 14°   Ceiling: 1400
Heat Index: 21°   Visibility: 8mi
Dew Point: 14°   Wind: 6mph
Humidity: 74%   Direction: 300°WNW
Pressure: 30.1"   Gusts: NA
Location:  43.98°N, 75.61°W
Report Text: KGTB 191813Z AUTO 30005KT 8SM -SN FEW007 BKN014 OVC019 M06/M10 A3010 RMK AO2 CIG 012V016 BKN V OVC
Loading
Personal Weather Stations






























Interactive Weather Map New forecast layout! Learn more

10-Day Weather Forecast

Advertisements
Track Severe Weather on mobile